Terminal Aerodrome Forecast
Issued by NWS

Current Version | Previous Version | Text Only | Print | Product List | Glossary Off
Versions: 1 2 3 4 5 6 7 8 9 10 11 12 13 14 15 16 17 18 19 20 21

480
FTUS41 KPBZ 180520
TAFMGW
TAF
KMGW 180520Z 1806/1906 24008KT P6SM OVC025
     FM181100 26012KT P6SM OVC015
      TEMPO 1812/1816 OVC008
     FM190300 26007KT P6SM OVC006=

USA.gov is the U.S. government's official web portal to all federal, state and local government web resources and services.